sensor_id;sensor_type;location;lat;lon;timestamp;P1;durP1;ratioP1;P2;durP2;ratioP2
2191;SDS011;1102;49.718;11.902;2023-02-28T00:01:06;5.30;;;4.80;;
2191;SDS011;1102;49.718;11.902;2023-02-28T00:03:33;7.17;;;4.70;;
2191;SDS011;1102;49.718;11.902;2023-02-28T00:06:05;6.60;;;4.20;;
2191;SDS011;1102;49.718;11.902;2023-02-28T00:08:33;5.60;;;5.07;;
2191;SDS011;1102;49.718;11.902;2023-02-28T00:11:00;4.63;;;4.10;;
2191;SDS011;1102;49.718;11.902;2023-02-28T00:13:29;4.80;;;3.93;;
2191;SDS011;1102;49.718;11.902;2023-02-28T00:16:02;4.73;;;4.23;;
2191;SDS011;1102;49.718;11.902;2023-02-28T00:18:31;5.93;;;4.37;;
2191;SDS011;1102;49.718;11.902;2023-02-28T00:20:58;5.03;;;3.70;;
2191;SDS011;1102;49.718;11.902;2023-02-28T00:23:25;5.13;;;3.63;;
2191;SDS011;1102;49.718;11.902;2023-02-28T00:25:53;5.07;;;4.57;;
2191;SDS011;1102;49.718;11.902;2023-02-28T00:28:20;6.77;;;4.47;;
2191;SDS011;1102;49.718;11.902;2023-02-28T00:30:47;4.93;;;3.60;;
2191;SDS011;1102;49.718;11.902;2023-02-28T00:33:14;6.33;;;4.33;;
2191;SDS011;1102;49.718;11.902;2023-02-28T00:35:41;4.60;;;3.87;;
2191;SDS011;1102;49.718;11.902;2023-02-28T00:38:15;4.90;;;4.33;;
2191;SDS011;1102;49.718;11.902;2023-02-28T00:40:42;5.60;;;3.87;;
2191;SDS011;1102;49.718;11.902;2023-02-28T00:43:10;8.90;;;4.17;;
2191;SDS011;1102;49.718;11.902;2023-02-28T00:45:36;6.70;;;5.90;;
2191;SDS011;1102;49.718;11.902;2023-02-28T00:48:03;5.20;;;4.70;;
2191;SDS011;1102;49.718;11.902;2023-02-28T00:50:30;4.90;;;4.10;;
2191;SDS011;1102;49.718;11.902;2023-02-28T00:52:57;4.97;;;4.57;;
2191;SDS011;1102;49.718;11.902;2023-02-28T00:55:23;8.13;;;5.53;;
2191;SDS011;1102;49.718;11.902;2023-02-28T00:57:50;7.90;;;4.80;;
2191;SDS011;1102;49.718;11.902;2023-02-28T01:00:17;5.03;;;4.47;;
2191;SDS011;1102;49.718;11.902;2023-02-28T01:02:44;5.63;;;5.17;;
2191;SDS011;1102;49.718;11.902;2023-02-28T01:05:10;8.30;;;4.43;;
2191;SDS011;1102;49.718;11.902;2023-02-28T01:07:37;6.13;;;4.70;;
2191;SDS011;1102;49.718;11.902;2023-02-28T01:10:04;6.17;;;4.93;;
2191;SDS011;1102;49.718;11.902;2023-02-28T01:12:32;6.73;;;5.20;;
2191;SDS011;1102;49.718;11.902;2023-02-28T01:14:58;8.77;;;4.90;;
2191;SDS011;1102;49.718;11.902;2023-02-28T01:17:25;5.33;;;4.60;;
2191;SDS011;1102;49.718;11.902;2023-02-28T01:19:53;5.63;;;5.17;;
2191;SDS011;1102;49.718;11.902;2023-02-28T01:22:23;4.80;;;4.40;;
2191;SDS011;1102;49.718;11.902;2023-02-28T01:24:50;5.77;;;4.70;;
2191;SDS011;1102;49.718;11.902;2023-02-28T01:27:17;7.57;;;5.53;;
2191;SDS011;1102;49.718;11.902;2023-02-28T01:29:44;8.07;;;6.27;;
2191;SDS011;1102;49.718;11.902;2023-02-28T01:32:10;7.10;;;5.93;;
2191;SDS011;1102;49.718;11.902;2023-02-28T01:34:37;7.43;;;5.17;;
2191;SDS011;1102;49.718;11.902;2023-02-28T01:37:04;5.50;;;5.00;;
2191;SDS011;1102;49.718;11.902;2023-02-28T01:39:30;5.40;;;4.90;;
2191;SDS011;1102;49.718;11.902;2023-02-28T01:41:57;5.00;;;4.50;;
2191;SDS011;1102;49.718;11.902;2023-02-28T01:47:32;5.90;;;4.90;;
2191;SDS011;1102;49.718;11.902;2023-02-28T01:50:05;5.70;;;4.57;;
2191;SDS011;1102;49.718;11.902;2023-02-28T01:52:38;4.77;;;4.37;;
2191;SDS011;1102;49.718;11.902;2023-02-28T01:55:06;11.83;;;4.77;;
2191;SDS011;1102;49.718;11.902;2023-02-28T01:57:35;5.83;;;4.67;;
2191;SDS011;1102;49.718;11.902;2023-02-28T02:00:09;6.90;;;5.23;;
2191;SDS011;1102;49.718;11.902;2023-02-28T02:02:40;4.60;;;4.20;;
2191;SDS011;1102;49.718;11.902;2023-02-28T02:05:11;5.60;;;5.10;;
2191;SDS011;1102;49.718;11.902;2023-02-28T02:07:41;7.03;;;6.00;;
2191;SDS011;1102;49.718;11.902;2023-02-28T02:12:59;7.57;;;5.60;;
2191;SDS011;1102;49.718;11.902;2023-02-28T02:18:07;5.83;;;5.20;;
2191;SDS011;1102;49.718;11.902;2023-02-28T02:41:03;8.47;;;6.10;;
2191;SDS011;1102;49.718;11.902;2023-02-28T02:46:17;6.80;;;6.00;;
2191;SDS011;1102;49.718;11.902;2023-02-28T02:48:48;7.37;;;6.50;;
2191;SDS011;1102;49.718;11.902;2023-02-28T02:51:20;7.30;;;6.60;;
2191;SDS011;1102;49.718;11.902;2023-02-28T02:53:54;6.93;;;6.10;;
2191;SDS011;1102;49.718;11.902;2023-02-28T02:56:25;10.60;;;6.43;;
2191;SDS011;1102;49.718;11.902;2023-02-28T02:58:56;10.37;;;6.70;;
2191;SDS011;1102;49.718;11.902;2023-02-28T03:01:29;6.13;;;5.63;;
2191;SDS011;1102;49.718;11.902;2023-02-28T03:04:00;6.17;;;5.57;;
2191;SDS011;1102;49.718;11.902;2023-02-28T03:06:29;6.53;;;4.47;;
2191;SDS011;1102;49.718;11.902;2023-02-28T03:08:56;7.00;;;5.20;;
2191;SDS011;1102;49.718;11.902;2023-02-28T03:11:22;7.30;;;6.30;;
2191;SDS011;1102;49.718;11.902;2023-02-28T03:16:34;6.87;;;5.13;;
2191;SDS011;1102;49.718;11.902;2023-02-28T03:30:01;9.47;;;6.57;;
2191;SDS011;1102;49.718;11.902;2023-02-28T03:32:33;7.90;;;5.03;;
2191;SDS011;1102;49.718;11.902;2023-02-28T03:35:06;6.67;;;6.07;;
2191;SDS011;1102;49.718;11.902;2023-02-28T03:37:38;7.27;;;6.37;;
2191;SDS011;1102;49.718;11.902;2023-02-28T03:40:09;6.77;;;6.10;;
2191;SDS011;1102;49.718;11.902;2023-02-28T03:42:41;6.57;;;5.80;;
2191;SDS011;1102;49.718;11.902;2023-02-28T03:45:13;6.67;;;5.10;;
2191;SDS011;1102;49.718;11.902;2023-02-28T03:48:06;9.67;;;6.67;;
2191;SDS011;1102;49.718;11.902;2023-02-28T03:50:42;10.37;;;6.93;;
2191;SDS011;1102;49.718;11.902;2023-02-28T03:55:45;7.40;;;5.33;;
2191;SDS011;1102;49.718;11.902;2023-02-28T03:58:27;7.90;;;5.77;;
2191;SDS011;1102;49.718;11.902;2023-02-28T04:01:09;14.83;;;6.70;;
2191;SDS011;1102;49.718;11.902;2023-02-28T04:03:37;6.17;;;5.33;;
2191;SDS011;1102;49.718;11.902;2023-02-28T04:06:13;7.70;;;6.60;;
2191;SDS011;1102;49.718;11.902;2023-02-28T04:08:43;6.67;;;5.90;;
2191;SDS011;1102;49.718;11.902;2023-02-28T04:14:01;13.10;;;7.20;;
2191;SDS011;1102;49.718;11.902;2023-02-28T04:16:29;7.23;;;6.40;;
2191;SDS011;1102;49.718;11.902;2023-02-28T04:19:02;7.00;;;6.30;;
2191;SDS011;1102;49.718;11.902;2023-02-28T04:21:31;6.70;;;6.10;;
2191;SDS011;1102;49.718;11.902;2023-02-28T04:24:00;8.33;;;6.60;;
2191;SDS011;1102;49.718;11.902;2023-02-28T04:26:29;6.70;;;6.07;;
2191;SDS011;1102;49.718;11.902;2023-02-28T04:28:57;6.23;;;5.57;;
2191;SDS011;1102;49.718;11.902;2023-02-28T04:31:24;9.90;;;6.90;;
2191;SDS011;1102;49.718;11.902;2023-02-28T04:33:52;9.37;;;7.17;;
2191;SDS011;1102;49.718;11.902;2023-02-28T04:36:18;11.30;;;8.40;;
2191;SDS011;1102;49.718;11.902;2023-02-28T04:38:46;11.17;;;8.93;;
2191;SDS011;1102;49.718;11.902;2023-02-28T04:41:13;10.93;;;8.10;;
2191;SDS011;1102;49.718;11.902;2023-02-28T04:43:39;8.50;;;7.03;;
2191;SDS011;1102;49.718;11.902;2023-02-28T04:46:06;9.23;;;8.27;;
2191;SDS011;1102;49.718;11.902;2023-02-28T04:48:35;7.70;;;7.00;;
2191;SDS011;1102;49.718;11.902;2023-02-28T04:51:04;8.77;;;7.50;;
2191;SDS011;1102;49.718;11.902;2023-02-28T04:53:35;7.80;;;7.10;;
2191;SDS011;1102;49.718;11.902;2023-02-28T04:56:03;6.53;;;5.93;;
2191;SDS011;1102;49.718;11.902;2023-02-28T04:58:30;11.37;;;7.53;;
2191;SDS011;1102;49.718;11.902;2023-02-28T05:01:01;8.27;;;7.40;;
2191;SDS011;1102;49.718;11.902;2023-02-28T05:03:29;9.37;;;7.67;;
2191;SDS011;1102;49.718;11.902;2023-02-28T05:05:56;14.20;;;8.00;;
2191;SDS011;1102;49.718;11.902;2023-02-28T05:08:23;8.73;;;6.03;;
2191;SDS011;1102;49.718;11.902;2023-02-28T05:10:49;16.43;;;7.00;;
2191;SDS011;1102;49.718;11.902;2023-02-28T05:13:16;8.37;;;7.60;;
2191;SDS011;1102;49.718;11.902;2023-02-28T05:15:43;11.93;;;8.17;;
2191;SDS011;1102;49.718;11.902;2023-02-28T05:18:09;8.07;;;6.43;;
2191;SDS011;1102;49.718;11.902;2023-02-28T05:20:36;12.17;;;8.27;;
2191;SDS011;1102;49.718;11.902;2023-02-28T05:23:04;8.87;;;7.53;;
2191;SDS011;1102;49.718;11.902;2023-02-28T05:25:30;9.67;;;7.60;;
2191;SDS011;1102;49.718;11.902;2023-02-28T05:27:57;9.97;;;8.30;;
2191;SDS011;1102;49.718;11.902;2023-02-28T05:30:23;8.83;;;7.30;;
2191;SDS011;1102;49.718;11.902;2023-02-28T05:32:50;8.30;;;7.40;;
2191;SDS011;1102;49.718;11.902;2023-02-28T05:35:17;9.90;;;7.60;;
2191;SDS011;1102;49.718;11.902;2023-02-28T05:37:44;13.27;;;9.80;;
2191;SDS011;1102;49.718;11.902;2023-02-28T05:40:11;9.70;;;8.30;;
2191;SDS011;1102;49.718;11.902;2023-02-28T05:42:38;9.80;;;8.33;;
2191;SDS011;1102;49.718;11.902;2023-02-28T05:45:05;10.93;;;7.50;;
2191;SDS011;1102;49.718;11.902;2023-02-28T05:47:33;8.23;;;7.40;;
2191;SDS011;1102;49.718;11.902;2023-02-28T05:50:00;10.60;;;7.83;;
2191;SDS011;1102;49.718;11.902;2023-02-28T05:52:27;9.47;;;6.90;;
2191;SDS011;1102;49.718;11.902;2023-02-28T05:54:56;12.90;;;9.80;;
2191;SDS011;1102;49.718;11.902;2023-02-28T05:57:22;11.60;;;8.37;;
2191;SDS011;1102;49.718;11.902;2023-02-28T05:59:50;9.37;;;7.50;;
2191;SDS011;1102;49.718;11.902;2023-02-28T06:02:17;14.07;;;9.30;;
2191;SDS011;1102;49.718;11.902;2023-02-28T06:04:44;8.90;;;8.00;;
2191;SDS011;1102;49.718;11.902;2023-02-28T06:07:11;15.03;;;8.03;;
2191;SDS011;1102;49.718;11.902;2023-02-28T06:09:38;10.73;;;7.43;;
2191;SDS011;1102;49.718;11.902;2023-02-28T06:12:05;11.80;;;8.97;;
2191;SDS011;1102;49.718;11.902;2023-02-28T06:14:33;10.30;;;8.40;;
2191;SDS011;1102;49.718;11.902;2023-02-28T06:17:00;11.47;;;8.60;;
2191;SDS011;1102;49.718;11.902;2023-02-28T06:19:27;11.33;;;9.20;;
2191;SDS011;1102;49.718;11.902;2023-02-28T06:21:56;14.07;;;9.63;;
2191;SDS011;1102;49.718;11.902;2023-02-28T06:24:23;12.57;;;8.30;;
2191;SDS011;1102;49.718;11.902;2023-02-28T06:26:54;11.07;;;9.97;;
2191;SDS011;1102;49.718;11.902;2023-02-28T06:29:21;10.23;;;9.17;;
2191;SDS011;1102;49.718;11.902;2023-02-28T06:31:48;9.83;;;8.63;;
2191;SDS011;1102;49.718;11.902;2023-02-28T06:34:16;7.43;;;6.60;;
2191;SDS011;1102;49.718;11.902;2023-02-28T06:36:43;12.33;;;9.37;;
2191;SDS011;1102;49.718;11.902;2023-02-28T06:39:09;9.63;;;8.23;;
2191;SDS011;1102;49.718;11.902;2023-02-28T06:41:36;15.03;;;8.63;;
2191;SDS011;1102;49.718;11.902;2023-02-28T06:44:21;10.60;;;9.10;;
2191;SDS011;1102;49.718;11.902;2023-02-28T06:46:48;13.90;;;9.60;;
2191;SDS011;1102;49.718;11.902;2023-02-28T06:49:16;12.47;;;8.03;;
2191;SDS011;1102;49.718;11.902;2023-02-28T06:51:43;11.37;;;9.53;;
2191;SDS011;1102;49.718;11.902;2023-02-28T06:54:13;16.27;;;10.90;;
2191;SDS011;1102;49.718;11.902;2023-02-28T06:56:40;14.50;;;11.40;;
2191;SDS011;1102;49.718;11.902;2023-02-28T06:59:07;11.50;;;8.70;;
2191;SDS011;1102;49.718;11.902;2023-02-28T07:01:33;11.73;;;9.63;;
2191;SDS011;1102;49.718;11.902;2023-02-28T07:04:00;12.70;;;8.50;;
2191;SDS011;1102;49.718;11.902;2023-02-28T07:06:27;14.80;;;10.07;;
2191;SDS011;1102;49.718;11.902;2023-02-28T07:08:54;15.50;;;10.00;;
2191;SDS011;1102;49.718;11.902;2023-02-28T07:11:21;11.63;;;8.37;;
2191;SDS011;1102;49.718;11.902;2023-02-28T07:13:52;14.30;;;9.13;;
2191;SDS011;1102;49.718;11.902;2023-02-28T07:16:22;12.70;;;11.07;;
2191;SDS011;1102;49.718;11.902;2023-02-28T07:18:51;12.67;;;10.30;;
2191;SDS011;1102;49.718;11.902;2023-02-28T07:21:19;8.43;;;6.77;;
2191;SDS011;1102;49.718;11.902;2023-02-28T07:23:46;12.73;;;8.87;;
2191;SDS011;1102;49.718;11.902;2023-02-28T07:26:14;10.43;;;9.33;;
2191;SDS011;1102;49.718;11.902;2023-02-28T07:28:44;11.87;;;8.13;;
2191;SDS011;1102;49.718;11.902;2023-02-28T07:31:12;13.50;;;8.97;;
2191;SDS011;1102;49.718;11.902;2023-02-28T07:33:43;9.30;;;7.73;;
2191;SDS011;1102;49.718;11.902;2023-02-28T07:36:11;7.30;;;6.43;;
2191;SDS011;1102;49.718;11.902;2023-02-28T07:38:41;9.67;;;7.33;;
2191;SDS011;1102;49.718;11.902;2023-02-28T07:41:13;13.03;;;9.63;;
2191;SDS011;1102;49.718;11.902;2023-02-28T07:43:40;11.33;;;7.27;;
2191;SDS011;1102;49.718;11.902;2023-02-28T07:46:08;9.60;;;6.97;;
2191;SDS011;1102;49.718;11.902;2023-02-28T07:48:36;10.27;;;8.50;;
2191;SDS011;1102;49.718;11.902;2023-02-28T07:51:03;9.67;;;7.60;;
2191;SDS011;1102;49.718;11.902;2023-02-28T07:53:30;10.53;;;8.20;;
2191;SDS011;1102;49.718;11.902;2023-02-28T07:55:57;13.87;;;8.93;;
2191;SDS011;1102;49.718;11.902;2023-02-28T07:58:26;8.70;;;7.80;;
2191;SDS011;1102;49.718;11.902;2023-02-28T08:00:53;10.10;;;7.60;;
2191;SDS011;1102;49.718;11.902;2023-02-28T08:03:21;10.50;;;9.50;;
2191;SDS011;1102;49.718;11.902;2023-02-28T08:05:49;13.03;;;7.23;;
2191;SDS011;1102;49.718;11.902;2023-02-28T08:08:16;7.87;;;7.07;;
2191;SDS011;1102;49.718;11.902;2023-02-28T08:10:43;6.67;;;5.90;;
2191;SDS011;1102;49.718;11.902;2023-02-28T08:13:09;11.07;;;6.60;;
2191;SDS011;1102;49.718;11.902;2023-02-28T08:15:36;9.63;;;7.07;;
2191;SDS011;1102;49.718;11.902;2023-02-28T08:18:03;9.53;;;7.10;;
2191;SDS011;1102;49.718;11.902;2023-02-28T08:20:29;9.77;;;7.73;;
2191;SDS011;1102;49.718;11.902;2023-02-28T08:22:56;11.20;;;7.73;;
2191;SDS011;1102;49.718;11.902;2023-02-28T08:25:23;9.20;;;7.43;;
2191;SDS011;1102;49.718;11.902;2023-02-28T08:27:50;7.47;;;5.83;;
2191;SDS011;1102;49.718;11.902;2023-02-28T08:30:18;6.87;;;6.17;;
2191;SDS011;1102;49.718;11.902;2023-02-28T08:32:45;8.43;;;5.60;;
2191;SDS011;1102;49.718;11.902;2023-02-28T08:35:12;8.07;;;7.30;;
2191;SDS011;1102;49.718;11.902;2023-02-28T08:37:38;12.77;;;8.07;;
2191;SDS011;1102;49.718;11.902;2023-02-28T08:40:05;11.47;;;6.57;;
2191;SDS011;1102;49.718;11.902;2023-02-28T08:42:32;9.50;;;7.57;;
2191;SDS011;1102;49.718;11.902;2023-02-28T08:44:59;6.27;;;5.70;;
2191;SDS011;1102;49.718;11.902;2023-02-28T08:47:26;5.20;;;4.70;;
2191;SDS011;1102;49.718;11.902;2023-02-28T08:49:52;10.00;;;7.10;;
2191;SDS011;1102;49.718;11.902;2023-02-28T08:52:19;7.87;;;6.43;;
2191;SDS011;1102;49.718;11.902;2023-02-28T08:54:46;10.43;;;8.70;;
2191;SDS011;1102;49.718;11.902;2023-02-28T08:57:12;17.10;;;8.10;;
2191;SDS011;1102;49.718;11.902;2023-02-28T08:59:39;10.43;;;7.80;;
2191;SDS011;1102;49.718;11.902;2023-02-28T09:02:05;8.20;;;6.73;;
2191;SDS011;1102;49.718;11.902;2023-02-28T09:04:33;7.00;;;6.00;;
2191;SDS011;1102;49.718;11.902;2023-02-28T09:07:00;10.37;;;8.13;;
2191;SDS011;1102;49.718;11.902;2023-02-28T09:09:26;5.90;;;5.40;;
2191;SDS011;1102;49.718;11.902;2023-02-28T09:11:55;7.87;;;6.10;;
2191;SDS011;1102;49.718;11.902;2023-02-28T09:14:22;7.33;;;6.33;;
2191;SDS011;1102;49.718;11.902;2023-02-28T09:16:49;7.73;;;7.00;;
2191;SDS011;1102;49.718;11.902;2023-02-28T09:19:15;21.70;;;12.57;;
2191;SDS011;1102;49.718;11.902;2023-02-28T09:21:42;5.67;;;5.10;;
2191;SDS011;1102;49.718;11.902;2023-02-28T09:24:09;6.30;;;5.60;;
2191;SDS011;1102;49.718;11.902;2023-02-28T09:26:37;10.17;;;7.87;;
2191;SDS011;1102;49.718;11.902;2023-02-28T09:29:16;6.57;;;5.97;;
2191;SDS011;1102;49.718;11.902;2023-02-28T09:31:43;7.50;;;6.50;;
2191;SDS011;1102;49.718;11.902;2023-02-28T09:34:10;8.03;;;7.23;;
2191;SDS011;1102;49.718;11.902;2023-02-28T09:36:37;5.93;;;5.00;;
2191;SDS011;1102;49.718;11.902;2023-02-28T09:39:11;9.10;;;7.20;;
2191;SDS011;1102;49.718;11.902;2023-02-28T09:41:40;8.63;;;7.17;;
2191;SDS011;1102;49.718;11.902;2023-02-28T09:44:26;6.80;;;6.13;;
2191;SDS011;1102;49.718;11.902;2023-02-28T09:47:21;6.80;;;5.80;;
2191;SDS011;1102;49.718;11.902;2023-02-28T09:49:54;7.77;;;6.83;;
2191;SDS011;1102;49.718;11.902;2023-02-28T09:52:30;8.20;;;6.13;;
2191;SDS011;1102;49.718;11.902;2023-02-28T09:55:11;8.77;;;6.00;;
2191;SDS011;1102;49.718;11.902;2023-02-28T09:57:54;6.30;;;5.00;;
2191;SDS011;1102;49.718;11.902;2023-02-28T10:00:24;8.70;;;5.60;;
2191;SDS011;1102;49.718;11.902;2023-02-28T10:11:29;6.10;;;5.30;;
2191;SDS011;1102;49.718;11.902;2023-02-28T10:14:12;8.67;;;6.87;;
2191;SDS011;1102;49.718;11.902;2023-02-28T10:22:14;6.87;;;6.17;;
2191;SDS011;1102;49.718;11.902;2023-02-28T10:25:05;10.97;;;10.07;;
2191;SDS011;1102;49.718;11.902;2023-02-28T10:27:46;9.60;;;6.87;;
2191;SDS011;1102;49.718;11.902;2023-02-28T10:30:13;9.10;;;8.10;;
2191;SDS011;1102;49.718;11.902;2023-02-28T10:32:40;10.07;;;8.03;;
2191;SDS011;1102;49.718;11.902;2023-02-28T10:35:16;9.47;;;7.50;;
2191;SDS011;1102;49.718;11.902;2023-02-28T10:37:46;7.37;;;6.60;;
2191;SDS011;1102;49.718;11.902;2023-02-28T10:42:58;9.23;;;7.10;;
2191;SDS011;1102;49.718;11.902;2023-02-28T10:45:28;8.00;;;7.20;;
2191;SDS011;1102;49.718;11.902;2023-02-28T10:48:44;12.97;;;8.03;;
2191;SDS011;1102;49.718;11.902;2023-02-28T10:50:50;9.30;;;7.20;;
2191;SDS011;1102;49.718;11.902;2023-02-28T10:56:34;8.90;;;5.30;;
2191;SDS011;1102;49.718;11.902;2023-02-28T10:58:52;6.17;;;5.57;;
2191;SDS011;1102;49.718;11.902;2023-02-28T11:01:46;9.73;;;6.20;;
2191;SDS011;1102;49.718;11.902;2023-02-28T11:09:51;9.60;;;8.53;;
2191;SDS011;1102;49.718;11.902;2023-02-28T11:14:51;10.43;;;8.30;;
2191;SDS011;1102;49.718;11.902;2023-02-28T11:17:24;8.50;;;7.60;;
2191;SDS011;1102;49.718;11.902;2023-02-28T11:19:55;11.00;;;9.23;;
2191;SDS011;1102;49.718;11.902;2023-02-28T11:22:25;9.73;;;7.67;;
2191;SDS011;1102;49.718;11.902;2023-02-28T11:24:58;7.80;;;7.00;;
2191;SDS011;1102;49.718;11.902;2023-02-28T11:29:57;6.43;;;5.67;;
2191;SDS011;1102;49.718;11.902;2023-02-28T11:32:29;6.50;;;5.33;;
2191;SDS011;1102;49.718;11.902;2023-02-28T11:37:35;8.97;;;6.33;;
2191;SDS011;1102;49.718;11.902;2023-02-28T11:40:13;9.30;;;7.40;;
2191;SDS011;1102;49.718;11.902;2023-02-28T11:43:01;7.30;;;6.37;;
2191;SDS011;1102;49.718;11.902;2023-02-28T11:48:20;9.40;;;7.20;;
2191;SDS011;1102;49.718;11.902;2023-02-28T11:50:59;11.77;;;7.43;;
2191;SDS011;1102;49.718;11.902;2023-02-28T11:53:37;7.93;;;7.07;;
2191;SDS011;1102;49.718;11.902;2023-02-28T11:56:11;8.10;;;6.17;;
2191;SDS011;1102;49.718;11.902;2023-02-28T11:58:55;7.43;;;6.77;;
2191;SDS011;1102;49.718;11.902;2023-02-28T12:01:37;11.20;;;6.93;;
2191;SDS011;1102;49.718;11.902;2023-02-28T12:21:00;9.70;;;6.80;;
2191;SDS011;1102;49.718;11.902;2023-02-28T12:28:42;13.77;;;9.80;;
2191;SDS011;1102;49.718;11.902;2023-02-28T12:34:16;6.60;;;5.60;;
2191;SDS011;1102;49.718;11.902;2023-02-28T12:36:47;9.73;;;7.40;;
2191;SDS011;1102;49.718;11.902;2023-02-28T12:39:18;7.97;;;7.17;;
2191;SDS011;1102;49.718;11.902;2023-02-28T12:44:46;9.97;;;7.57;;
2191;SDS011;1102;49.718;11.902;2023-02-28T12:47:18;10.77;;;6.90;;
2191;SDS011;1102;49.718;11.902;2023-02-28T12:52:40;9.40;;;8.17;;
2191;SDS011;1102;49.718;11.902;2023-02-28T12:55:15;12.37;;;7.43;;
2191;SDS011;1102;49.718;11.902;2023-02-28T13:01:29;9.03;;;7.80;;
2191;SDS011;1102;49.718;11.902;2023-02-28T13:09:51;10.60;;;8.30;;
2191;SDS011;1102;49.718;11.902;2023-02-28T13:12:19;12.83;;;7.70;;
2191;SDS011;1102;49.718;11.902;2023-02-28T13:14:49;8.50;;;7.60;;
2191;SDS011;1102;49.718;11.902;2023-02-28T13:17:19;15.23;;;8.30;;
2191;SDS011;1102;49.718;11.902;2023-02-28T13:22:36;11.10;;;7.00;;
2191;SDS011;1102;49.718;11.902;2023-02-28T13:28:09;7.67;;;6.97;;
2191;SDS011;1102;49.718;11.902;2023-02-28T13:31:01;12.40;;;8.83;;
2191;SDS011;1102;49.718;11.902;2023-02-28T13:33:36;8.80;;;7.40;;
2191;SDS011;1102;49.718;11.902;2023-02-28T13:46:36;10.00;;;8.53;;
2191;SDS011;1102;49.718;11.902;2023-02-28T13:51:51;10.43;;;8.40;;
2191;SDS011;1102;49.718;11.902;2023-02-28T13:57:00;10.30;;;9.17;;
2191;SDS011;1102;49.718;11.902;2023-02-28T14:05:17;16.23;;;9.60;;
2191;SDS011;1102;49.718;11.902;2023-02-28T14:07:50;12.60;;;9.50;;
2191;SDS011;1102;49.718;11.902;2023-02-28T14:10:29;10.73;;;9.67;;
2191;SDS011;1102;49.718;11.902;2023-02-28T14:13:12;10.57;;;8.57;;
2191;SDS011;1102;49.718;11.902;2023-02-28T14:15:46;10.57;;;9.00;;
2191;SDS011;1102;49.718;11.902;2023-02-28T14:18:23;10.53;;;7.33;;
2191;SDS011;1102;49.718;11.902;2023-02-28T14:21:08;10.33;;;8.73;;
2191;SDS011;1102;49.718;11.902;2023-02-28T14:26:41;11.97;;;8.43;;
2191;SDS011;1102;49.718;11.902;2023-02-28T14:29:53;10.13;;;8.80;;
2191;SDS011;1102;49.718;11.902;2023-02-28T14:32:35;10.53;;;8.73;;
2191;SDS011;1102;49.718;11.902;2023-02-28T14:35:22;11.30;;;8.43;;
2191;SDS011;1102;49.718;11.902;2023-02-28T14:37:55;8.13;;;7.30;;
2191;SDS011;1102;49.718;11.902;2023-02-28T14:40:32;11.50;;;9.27;;
2191;SDS011;1102;49.718;11.902;2023-02-28T14:43:05;10.63;;;9.60;;
2191;SDS011;1102;49.718;11.902;2023-02-28T14:45:33;11.17;;;8.63;;
2191;SDS011;1102;49.718;11.902;2023-02-28T14:48:03;11.83;;;9.50;;
2191;SDS011;1102;49.718;11.902;2023-02-28T14:50:36;9.83;;;8.30;;
2191;SDS011;1102;49.718;11.902;2023-02-28T14:53:03;10.23;;;8.67;;
2191;SDS011;1102;49.718;11.902;2023-02-28T14:55:43;10.73;;;8.40;;
2191;SDS011;1102;49.718;11.902;2023-02-28T15:00:54;12.73;;;10.17;;
2191;SDS011;1102;49.718;11.902;2023-02-28T15:06:04;10.90;;;9.13;;
2191;SDS011;1102;49.718;11.902;2023-02-28T15:08:33;9.40;;;8.50;;
2191;SDS011;1102;49.718;11.902;2023-02-28T15:11:13;10.83;;;8.43;;
2191;SDS011;1102;49.718;11.902;2023-02-28T15:13:43;11.27;;;9.40;;
2191;SDS011;1102;49.718;11.902;2023-02-28T15:21:21;10.60;;;9.40;;
2191;SDS011;1102;49.718;11.902;2023-02-28T15:23:57;10.70;;;9.33;;
2191;SDS011;1102;49.718;11.902;2023-02-28T15:26:31;9.77;;;8.43;;
2191;SDS011;1102;49.718;11.902;2023-02-28T15:29:01;9.20;;;7.93;;
2191;SDS011;1102;49.718;11.902;2023-02-28T15:31:35;13.20;;;10.00;;
2191;SDS011;1102;49.718;11.902;2023-02-28T15:34:25;13.00;;;9.90;;
2191;SDS011;1102;49.718;11.902;2023-02-28T15:37:29;11.87;;;10.13;;
2191;SDS011;1102;49.718;11.902;2023-02-28T15:40:23;13.00;;;10.53;;
2191;SDS011;1102;49.718;11.902;2023-02-28T15:45:40;12.73;;;10.90;;
2191;SDS011;1102;49.718;11.902;2023-02-28T15:48:49;13.70;;;10.13;;
2191;SDS011;1102;49.718;11.902;2023-02-28T15:51:17;11.00;;;8.53;;
2191;SDS011;1102;49.718;11.902;2023-02-28T15:53:50;11.87;;;8.97;;
2191;SDS011;1102;49.718;11.902;2023-02-28T15:56:26;13.97;;;10.37;;
2191;SDS011;1102;49.718;11.902;2023-02-28T15:59:00;9.90;;;8.87;;
2191;SDS011;1102;49.718;11.902;2023-02-28T16:01:35;9.90;;;8.80;;
2191;SDS011;1102;49.718;11.902;2023-02-28T16:04:03;14.33;;;10.47;;
2191;SDS011;1102;49.718;11.902;2023-02-28T16:09:04;11.63;;;10.50;;
2191;SDS011;1102;49.718;11.902;2023-02-28T16:11:35;12.90;;;10.20;;
2191;SDS011;1102;49.718;11.902;2023-02-28T16:14:05;14.33;;;9.07;;
2191;SDS011;1102;49.718;11.902;2023-02-28T16:16:32;13.40;;;9.70;;
2191;SDS011;1102;49.718;11.902;2023-02-28T16:18:59;14.50;;;10.20;;
2191;SDS011;1102;49.718;11.902;2023-02-28T16:21:26;11.50;;;10.00;;
2191;SDS011;1102;49.718;11.902;2023-02-28T16:23:53;11.70;;;9.43;;
2191;SDS011;1102;49.718;11.902;2023-02-28T16:26:21;11.57;;;8.93;;
2191;SDS011;1102;49.718;11.902;2023-02-28T16:28:50;10.30;;;9.00;;
2191;SDS011;1102;49.718;11.902;2023-02-28T16:31:17;12.43;;;9.37;;
2191;SDS011;1102;49.718;11.902;2023-02-28T16:33:44;10.97;;;8.57;;
2191;SDS011;1102;49.718;11.902;2023-02-28T16:36:16;16.37;;;9.07;;
2191;SDS011;1102;49.718;11.902;2023-02-28T16:38:51;12.87;;;9.27;;
2191;SDS011;1102;49.718;11.902;2023-02-28T16:41:19;10.03;;;7.97;;
2191;SDS011;1102;49.718;11.902;2023-02-28T16:43:48;11.03;;;9.80;;
2191;SDS011;1102;49.718;11.902;2023-02-28T16:46:17;14.00;;;10.43;;
2191;SDS011;1102;49.718;11.902;2023-02-28T16:48:46;18.33;;;10.33;;
2191;SDS011;1102;49.718;11.902;2023-02-28T16:51:17;14.47;;;10.80;;
2191;SDS011;1102;49.718;11.902;2023-02-28T16:53:45;20.37;;;11.37;;
2191;SDS011;1102;49.718;11.902;2023-02-28T16:56:15;19.10;;;13.50;;
2191;SDS011;1102;49.718;11.902;2023-02-28T16:58:45;15.97;;;12.73;;
2191;SDS011;1102;49.718;11.902;2023-02-28T17:01:12;13.00;;;11.43;;
2191;SDS011;1102;49.718;11.902;2023-02-28T17:03:39;14.50;;;11.27;;
2191;SDS011;1102;49.718;11.902;2023-02-28T17:06:17;16.73;;;10.60;;
2191;SDS011;1102;49.718;11.902;2023-02-28T17:08:46;12.73;;;8.57;;
2191;SDS011;1102;49.718;11.902;2023-02-28T17:11:13;13.83;;;9.07;;
2191;SDS011;1102;49.718;11.902;2023-02-28T17:13:39;11.93;;;10.70;;
2191;SDS011;1102;49.718;11.902;2023-02-28T17:16:08;13.83;;;9.90;;
2191;SDS011;1102;49.718;11.902;2023-02-28T17:18:46;14.03;;;11.13;;
2191;SDS011;1102;49.718;11.902;2023-02-28T17:21:14;12.13;;;10.00;;
2191;SDS011;1102;49.718;11.902;2023-02-28T17:23:42;12.07;;;10.33;;
2191;SDS011;1102;49.718;11.902;2023-02-28T17:26:11;14.40;;;10.50;;
2191;SDS011;1102;49.718;11.902;2023-02-28T17:28:39;13.23;;;10.17;;
2191;SDS011;1102;49.718;11.902;2023-02-28T17:31:07;17.07;;;12.03;;
2191;SDS011;1102;49.718;11.902;2023-02-28T17:33:34;11.10;;;9.67;;
2191;SDS011;1102;49.718;11.902;2023-02-28T17:36:00;13.87;;;10.33;;
2191;SDS011;1102;49.718;11.902;2023-02-28T17:38:30;13.73;;;10.47;;
2191;SDS011;1102;49.718;11.902;2023-02-28T17:40:57;15.23;;;10.40;;
2191;SDS011;1102;49.718;11.902;2023-02-28T17:43:25;16.47;;;10.93;;
2191;SDS011;1102;49.718;11.902;2023-02-28T17:45:53;12.80;;;9.63;;
2191;SDS011;1102;49.718;11.902;2023-02-28T17:48:20;14.37;;;10.87;;
2191;SDS011;1102;49.718;11.902;2023-02-28T17:50:47;19.83;;;13.43;;
2191;SDS011;1102;49.718;11.902;2023-02-28T17:53:14;16.87;;;13.67;;
2191;SDS011;1102;49.718;11.902;2023-02-28T17:55:42;15.50;;;11.90;;
2191;SDS011;1102;49.718;11.902;2023-02-28T17:58:09;18.70;;;13.80;;
2191;SDS011;1102;49.718;11.902;2023-02-28T18:00:38;18.90;;;15.33;;
2191;SDS011;1102;49.718;11.902;2023-02-28T18:03:05;24.00;;;15.47;;
2191;SDS011;1102;49.718;11.902;2023-02-28T18:05:32;22.63;;;14.77;;